Time;durP1;ratioP1;P1;durP2;ratioP2;P2;SDS_P1;SDS_P2;PMS_P1;PMS_P2;Temp;Humidity;BMP_temperature;BMP_pressure;BME280_temperature;BME280_humidity;BME280_pressure;Samples;Min_cycle;Max_cycle;Signal;HPM_P1;HPM_P2
2022/03/07 00:01:10;;;;;;;16.55;8.32;;;-2.50;84.90;;;;;;4999106;28;20035;-87
2022/03/07 00:03:36;;;;;;;16.55;8.63;;;-2.40;84.40;;;;;;4994993;28;20125;-89
2022/03/07 00:06:02;;;;;;;15.43;8.00;;;-2.40;84.30;;;;;;5001647;28;20610;-90
2022/03/07 00:08:28;;;;;;;14.20;7.80;;;-2.40;83.70;;;;;;4989378;28;20080;-89
2022/03/07 00:10:54;;;;;;;19.15;9.45;;;-2.40;84.60;;;;;;4999755;28;20073;-89
2022/03/07 00:13:19;;;;;;;15.55;9.02;;;-2.40;84.30;;;;;;4996939;28;20264;-89
2022/03/07 00:15:45;;;;;;;16.95;8.50;;;-2.40;83.90;;;;;;5002449;28;20097;-88
2022/03/07 00:18:11;;;;;;;16.92;8.88;;;-2.50;83.90;;;;;;5005717;28;20027;-87
2022/03/07 00:20:37;;;;;;;15.73;8.48;;;-2.60;84.80;;;;;;4995278;28;20023;-89
2022/03/07 00:23:02;;;;;;;16.50;9.00;;;-2.70;85.40;;;;;;4990374;28;20393;-89
2022/03/07 00:25:28;;;;;;;16.85;8.80;;;-2.70;86.00;;;;;;4999943;28;20041;-87
2022/03/07 00:27:54;;;;;;;15.00;7.82;;;-2.50;85.30;;;;;;5003192;28;20037;-88
2022/03/07 00:30:21;;;;;;;18.15;8.73;;;-2.50;85.40;;;;;;4996491;28;20474;-87
2022/03/07 00:32:47;;;;;;;16.13;7.97;;;-2.40;84.90;;;;;;5002659;28;20019;-88
2022/03/07 00:35:14;;;;;;;16.98;8.65;;;-2.50;84.90;;;;;;4999359;28;20048;-87
2022/03/07 00:37:40;;;;;;;16.40;8.32;;;-2.60;84.80;;;;;;5009350;28;20192;-90
2022/03/07 00:40:08;;;;;;;16.25;8.63;;;-2.60;85.20;;;;;;4998316;28;20445;-87
2022/03/07 00:42:34;;;;;;;11.13;5.80;;;-2.60;85.70;;;;;;5006382;28;20057;-89
2022/03/07 00:45:00;;;;;;;16.67;8.65;;;-2.60;85.60;;;;;;4983728;28;20467;-88
2022/03/07 00:47:25;;;;;;;14.95;8.00;;;-2.50;86.20;;;;;;4990500;28;20504;-89
2022/03/07 00:49:51;;;;;;;18.67;9.35;;;-2.50;86.30;;;;;;4998681;28;20375;-88
2022/03/07 00:52:17;;;;;;;15.27;7.85;;;-2.60;86.30;;;;;;4990684;28;20109;-86
2022/03/07 00:54:43;;;;;;;14.32;7.93;;;-2.50;86.40;;;;;;4991258;28;20106;-90
2022/03/07 00:57:09;;;;;;;18.50;8.32;;;-2.60;86.50;;;;;;4981793;28;20042;-86
2022/03/07 00:59:34;;;;;;;16.38;9.20;;;-2.70;86.20;;;;;;5009467;28;20533;-90
2022/03/07 01:02:00;;;;;;;19.38;9.30;;;-2.70;86.30;;;;;;4993304;28;20497;-88
2022/03/07 01:04:29;;;;;;;15.00;7.75;;;-2.70;86.00;;;;;;5001637;28;20078;-89
2022/03/07 01:06:54;;;;;;;16.58;8.48;;;-2.80;86.60;;;;;;4996506;28;20121;-88
2022/03/07 01:09:20;;;;;;;16.17;8.80;;;-2.70;86.10;;;;;;4996936;28;20122;-86
2022/03/07 01:11:46;;;;;;;15.52;7.88;;;-2.70;86.70;;;;;;4995691;28;20046;-91
2022/03/07 01:14:11;;;;;;;17.75;8.27;;;-2.50;86.10;;;;;;4996129;28;20046;-87
2022/03/07 01:16:37;;;;;;;17.70;9.65;;;-2.50;86.10;;;;;;5002659;28;20030;-85
2022/03/07 01:19:03;;;;;;;18.23;9.40;;;-2.40;85.70;;;;;;4995835;28;20034;-90
2022/03/07 01:21:28;;;;;;;17.55;8.98;;;-2.50;86.30;;;;;;5002251;28;20030;-88
2022/03/07 01:23:54;;;;;;;18.73;8.63;;;-2.60;86.10;;;;;;5003099;28;20107;-84
2022/03/07 01:26:19;;;;;;;21.17;8.98;;;-2.60;87.60;;;;;;5003843;28;20038;-84
2022/03/07 01:28:45;;;;;;;15.32;8.05;;;-2.50;87.40;;;;;;4998225;28;20027;-85
2022/03/07 01:31:11;;;;;;;19.02;9.07;;;-2.40;86.70;;;;;;4999689;28;20042;-87
2022/03/07 01:33:36;;;;;;;16.02;7.25;;;-2.40;86.70;;;;;;4997652;28;20038;-89
2022/03/07 01:36:03;;;;;;;18.67;8.40;;;-2.40;87.10;;;;;;5005857;28;20064;-87
2022/03/07 01:38:28;;;;;;;23.40;8.90;;;-2.40;87.70;;;;;;4995443;28;20050;-83
2022/03/07 01:40:54;;;;;;;23.30;8.63;;;-2.40;87.60;;;;;;4998460;28;20069;-86
2022/03/07 01:43:19;;;;;;;18.05;9.20;;;-2.50;87.00;;;;;;4995416;28;20118;-84
2022/03/07 01:45:45;;;;;;;17.75;8.32;;;-2.60;87.90;;;;;;4995939;28;20033;-84
2022/03/07 01:48:11;;;;;;;15.07;8.98;;;-2.60;88.50;;;;;;4997936;28;20390;-84
2022/03/07 01:50:37;;;;;;;17.05;9.57;;;-2.60;88.30;;;;;;4998559;28;20027;-82
2022/03/07 01:53:02;;;;;;;14.23;8.23;;;-2.70;89.70;;;;;;4999937;28;20461;-86
2022/03/07 01:55:28;;;;;;;25.55;9.80;;;-2.50;89.50;;;;;;5007570;28;20036;-87
2022/03/07 01:57:54;;;;;;;19.65;9.63;;;-2.50;89.30;;;;;;5000641;28;20105;-83
2022/03/07 02:00:23;;;;;;;19.35;9.43;;;-2.50;89.50;;;;;;5000135;28;20072;-86
2022/03/07 02:02:49;;;;;;;15.45;9.38;;;-2.40;89.40;;;;;;4998170;28;20418;-82
2022/03/07 02:05:15;;;;;;;17.33;8.88;;;-2.60;89.10;;;;;;5007829;28;20117;-83
2022/03/07 02:07:41;;;;;;;16.40;8.50;;;-2.60;90.30;;;;;;5008244;28;20126;-79
2022/03/07 02:10:09;;;;;;;19.45;8.63;;;-2.80;90.40;;;;;;4998037;28;20053;-86
2022/03/07 02:12:36;;;;;;;19.48;8.65;;;-2.70;91.20;;;;;;5008762;28;20481;-86
2022/03/07 02:15:02;;;;;;;18.00;9.75;;;-2.80;91.90;;;;;;5000466;28;20543;-85
2022/03/07 02:17:29;;;;;;;18.90;9.15;;;-2.80;92.00;;;;;;5001269;28;20369;-85
2022/03/07 02:19:54;;;;;;;19.13;8.82;;;-2.80;92.10;;;;;;4998828;28;20034;-85
2022/03/07 02:22:22;;;;;;;20.98;10.07;;;-2.80;92.50;;;;;;4995828;28;20477;-82
2022/03/07 02:24:47;;;;;;;18.67;9.45;;;-2.90;92.40;;;;;;4990334;28;20393;-85
2022/03/07 02:27:18;;;;;;;16.45;8.30;;;-3.00;92.60;;;;;;5004326;28;20038;-83
2022/03/07 02:29:46;;;;;;;19.27;9.43;;;-3.00;93.40;;;;;;4999805;28;20092;-87
2022/03/07 02:32:12;;;;;;;16.90;8.40;;;-2.90;93.50;;;;;;5004625;28;20038;-87
2022/03/07 02:34:38;;;;;;;21.85;10.52;;;-2.90;93.50;;;;;;4998106;28;20041;-88
2022/03/07 02:37:04;;;;;;;18.23;9.75;;;-2.90;93.90;;;;;;4999876;28;20038;-85
2022/03/07 02:39:30;;;;;;;17.98;8.88;;;-2.90;94.20;;;;;;5001018;28;20426;-84
2022/03/07 02:41:56;;;;;;;24.40;10.02;;;-2.90;94.70;;;;;;4999506;28;20034;-87
2022/03/07 02:44:23;;;;;;;15.13;8.93;;;-2.90;95.00;;;;;;4995947;28;20026;-83
2022/03/07 02:46:48;;;;;;;19.48;9.50;;;-3.00;94.60;;;;;;5002828;28;20022;-85
2022/03/07 02:49:14;;;;;;;16.80;9.15;;;-3.00;94.90;;;;;;4998449;28;20026;-85
2022/03/07 02:51:40;;;;;;;21.83;9.43;;;-3.20;94.90;;;;;;5003990;28;20032;-84
2022/03/07 02:54:06;;;;;;;22.02;9.95;;;-3.30;95.50;;;;;;5000093;28;20038;-86
2022/03/07 02:56:32;;;;;;;13.45;6.30;;;-3.30;96.30;;;;;;5005043;28;20358;-87
2022/03/07 02:58:57;;;;;;;21.35;9.38;;;-3.20;97.10;;;;;;4997570;28;20786;-87
2022/03/07 03:01:23;;;;;;;19.17;9.88;;;-3.20;96.90;;;;;;4997918;28;20062;-88
2022/03/07 03:03:49;;;;;;;18.88;9.45;;;-3.20;97.30;;;;;;4999716;28;20698;-87
2022/03/07 03:06:15;;;;;;;12.27;6.78;;;-3.20;97.70;;;;;;4997641;28;20033;-80
2022/03/07 03:08:40;;;;;;;20.38;9.55;;;-3.30;97.10;;;;;;4996369;28;20430;-86
2022/03/07 03:11:06;;;;;;;18.42;9.57;;;-3.40;97.50;;;;;;5005493;28;20532;-85
2022/03/07 03:13:32;;;;;;;18.30;8.82;;;-3.50;97.50;;;;;;4994558;28;20484;-87
2022/03/07 03:15:57;;;;;;;24.05;10.07;;;-3.50;98.70;;;;;;5003488;28;20609;-81
2022/03/07 03:18:23;;;;;;;18.33;10.43;;;-3.40;98.60;;;;;;4995045;28;20478;-81
2022/03/07 03:20:51;;;;;;;20.05;8.70;;;-3.40;98.60;;;;;;4999007;28;20026;-86
2022/03/07 03:23:18;;;;;;;18.20;9.35;;;-3.30;98.80;;;;;;4994990;28;20034;-84
2022/03/07 03:25:43;;;;;;;17.90;8.93;;;-3.40;98.50;;;;;;4995505;28;20037;-85
2022/03/07 03:28:09;;;;;;;18.17;9.30;;;-3.40;98.70;;;;;;4994187;28;20034;-85
2022/03/07 03:30:35;;;;;;;15.30;7.53;;;-3.60;98.80;;;;;;5000593;28;20477;-87
2022/03/07 03:33:02;;;;;;;21.38;10.00;;;-3.60;99.30;;;;;;4999754;28;20057;-86
2022/03/07 03:35:27;;;;;;;16.90;8.40;;;-3.60;99.40;;;;;;5001556;28;20745;-84
2022/03/07 03:37:53;;;;;;;21.92;10.68;;;-3.80;99.30;;;;;;5010530;28;20033;-84
2022/03/07 03:40:19;;;;;;;26.52;12.05;;;-3.80;99.90;;;;;;4994241;28;20065;-84
2022/03/07 03:42:45;;;;;;;17.75;9.43;;;-3.80;99.90;;;;;;5000522;28;20022;-85
2022/03/07 03:45:12;;;;;;;20.92;9.93;;;-3.70;99.90;;;;;;4989417;28;20482;-86
2022/03/07 03:47:39;;;;;;;21.33;9.93;;;-3.80;99.90;;;;;;5000445;28;20026;-83
2022/03/07 03:50:08;;;;;;;18.67;8.63;;;-3.90;99.90;;;;;;4998020;28;20066;-83
2022/03/07 03:52:34;;;;;;;20.40;9.20;;;-4.00;99.90;;;;;;4998526;28;20026;-88
2022/03/07 03:55:02;;;;;;;16.23;7.90;;;-4.00;99.90;;;;;;4993418;28;20068;-83
2022/03/07 03:57:28;;;;;;;17.15;8.90;;;-3.90;99.90;;;;;;4988075;28;20038;-89
2022/03/07 03:59:54;;;;;;;16.45;8.52;;;-3.90;99.90;;;;;;4994298;28;20065;-83
2022/03/07 04:02:19;;;;;;;21.63;9.77;;;-3.90;99.90;;;;;;5001001;28;20432;-85
2022/03/07 04:04:45;;;;;;;15.68;8.20;;;-3.90;99.90;;;;;;4995592;28;20038;-82
2022/03/07 04:07:11;;;;;;;19.80;8.82;;;-3.80;99.90;;;;;;4996877;28;20040;-86
2022/03/07 04:09:36;;;;;;;20.90;8.80;;;-3.80;99.90;;;;;;4995514;28;20033;-82
2022/03/07 04:12:02;;;;;;;20.95;9.52;;;-4.00;99.20;;;;;;4997804;28;20463;-84
2022/03/07 04:14:28;;;;;;;19.45;9.45;;;-4.10;99.90;;;;;;4993846;28;20042;-85
2022/03/07 04:16:54;;;;;;;18.60;9.07;;;-4.20;99.90;;;;;;4997076;28;20130;-87
2022/03/07 04:19:20;;;;;;;18.88;9.25;;;-4.20;99.90;;;;;;4994043;28;20748;-86
2022/03/07 04:21:46;;;;;;;19.95;8.90;;;-4.30;99.90;;;;;;5003094;28;20037;-87
2022/03/07 04:24:12;;;;;;;18.08;9.20;;;-4.20;99.90;;;;;;4996439;28;20023;-87
2022/03/07 04:26:39;;;;;;;19.63;10.35;;;-4.10;99.90;;;;;;4993763;28;20023;-88
2022/03/07 04:29:07;;;;;;;19.80;9.68;;;-4.20;99.90;;;;;;4992561;28;20034;-81
2022/03/07 04:31:44;;;;;;;16.73;8.77;;;-4.30;99.90;;;;;;4999906;28;20038;-86
2022/03/07 04:34:12;;;;;;;19.42;10.60;;;-4.30;99.90;;;;;;4990471;28;20043;-85
2022/03/07 04:36:39;;;;;;;24.95;10.90;;;-4.20;99.90;;;;;;4992003;28;20029;-82
2022/03/07 04:39:06;;;;;;;15.77;8.98;;;-4.20;99.90;;;;;;4985552;28;20030;-80
2022/03/07 04:41:33;;;;;;;19.08;10.52;;;-4.20;99.90;;;;;;4995107;28;20660;-86
2022/03/07 04:43:59;;;;;;;22.50;10.52;;;-4.20;99.90;;;;;;4999472;28;20070;-83
2022/03/07 04:46:24;;;;;;;18.40;8.98;;;-4.40;99.90;;;;;;4996449;28;20037;-87
2022/03/07 04:48:50;;;;;;;24.13;10.38;;;-4.40;99.90;;;;;;4996541;28;20114;-86
2022/03/07 04:51:16;;;;;;;21.23;9.98;;;-4.50;99.90;;;;;;4991577;28;20466;-85
2022/03/07 04:53:42;;;;;;;18.85;9.93;;;-4.60;99.90;;;;;;4996786;28;20104;-83
2022/03/07 04:56:08;;;;;;;21.65;10.20;;;-4.50;99.90;;;;;;4999790;28;20073;-87
2022/03/07 04:58:34;;;;;;;18.52;10.68;;;-4.60;99.90;;;;;;5003848;28;20061;-86
2022/03/07 05:01:00;;;;;;;17.98;9.05;;;-4.60;99.90;;;;;;5000711;28;20070;-86
2022/03/07 05:03:25;;;;;;;19.27;9.65;;;-4.70;99.90;;;;;;4996881;28;20042;-86
2022/03/07 05:05:51;;;;;;;24.45;9.82;;;-4.80;99.90;;;;;;4993117;28;20765;-83
2022/03/07 05:08:17;;;;;;;23.73;10.50;;;-4.80;99.90;;;;;;4997211;28;20026;-87
2022/03/07 05:10:43;;;;;;;23.42;10.23;;;-4.90;99.90;;;;;;5007772;28;20109;-86
2022/03/07 05:13:10;;;;;;;23.75;10.13;;;-4.80;99.90;;;;;;5005023;28;20476;-83
2022/03/07 05:15:36;;;;;;;20.95;9.95;;;-4.80;99.90;;;;;;4992146;28;20102;-85
2022/03/07 05:18:03;;;;;;;23.15;9.45;;;-4.70;99.90;;;;;;5002864;28;20370;-86
2022/03/07 05:20:29;;;;;;;17.42;8.68;;;-4.70;99.90;;;;;;5002047;28;20027;-86
2022/03/07 05:22:55;;;;;;;19.23;8.90;;;-4.80;99.90;;;;;;4995747;28;20037;-88
2022/03/07 05:25:21;;;;;;;21.98;9.60;;;-4.70;99.90;;;;;;4990840;28;20030;-82
2022/03/07 05:27:47;;;;;;;17.08;9.43;;;-4.60;99.90;;;;;;4998598;28;20490;-86
2022/03/07 05:30:17;;;;;;;20.10;8.90;;;-4.60;99.90;;;;;;4995000;28;20034;-84
2022/03/07 05:32:44;;;;;;;19.48;9.77;;;-4.50;99.90;;;;;;4996027;28;20532;-84
2022/03/07 05:35:10;;;;;;;17.05;10.38;;;-4.70;99.90;;;;;;4999680;28;20053;-86
2022/03/07 05:37:36;;;;;;;18.65;9.02;;;-4.70;99.90;;;;;;4994811;28;20022;-86
2022/03/07 05:40:04;;;;;;;19.88;9.93;;;-4.80;99.90;;;;;;4998202;28;20080;-86
2022/03/07 05:42:29;;;;;;;21.20;9.15;;;-4.70;99.90;;;;;;5004072;28;20038;-84
2022/03/07 05:44:55;;;;;;;20.20;11.90;;;-4.70;99.90;;;;;;4997017;28;20040;-86
2022/03/07 05:47:21;;;;;;;20.67;10.63;;;-4.70;99.90;;;;;;4996402;28;20038;-82
2022/03/07 05:49:47;;;;;;;28.30;10.55;;;-4.70;99.90;;;;;;4999110;28;20038;-83
2022/03/07 05:52:12;;;;;;;23.95;9.70;;;-4.80;99.90;;;;;;5002555;28;20049;-84
2022/03/07 05:54:38;;;;;;;23.15;10.30;;;-4.90;99.90;;;;;;4995648;28;20040;-84
2022/03/07 05:57:03;;;;;;;20.85;9.57;;;-4.90;99.90;;;;;;5011386;28;20030;-84
2022/03/07 05:59:29;;;;;;;20.90;9.55;;;-4.90;99.90;;;;;;4999046;28;20033;-83
2022/03/07 06:01:55;;;;;;;19.25;8.02;;;-4.80;99.90;;;;;;4989348;28;20042;-82
2022/03/07 06:04:20;;;;;;;17.70;10.60;;;-4.90;99.90;;;;;;4989587;28;20058;-80
2022/03/07 06:06:46;;;;;;;25.40;10.50;;;-4.80;99.90;;;;;;4983181;28;20038;-86
2022/03/07 06:09:11;;;;;;;20.73;9.18;;;-4.90;99.90;;;;;;4990765;28;20041;-83
2022/03/07 06:11:37;;;;;;;21.98;9.43;;;-4.70;99.90;;;;;;4988614;28;20054;-80
2022/03/07 06:14:03;;;;;;;25.67;9.80;;;-4.70;99.90;;;;;;4990260;28;20197;-84
2022/03/07 06:16:28;;;;;;;25.38;9.75;;;-4.60;99.90;;;;;;5004738;28;20049;-84
2022/03/07 06:18:54;;;;;;;22.80;10.75;;;-4.60;99.90;;;;;;4990501;28;20034;-79
2022/03/07 06:21:19;;;;;;;28.02;10.82;;;-4.60;99.90;;;;;;4988566;28;20030;-79
2022/03/07 06:23:45;;;;;;;22.63;9.45;;;-4.60;99.90;;;;;;4989221;28;20066;-80
2022/03/07 06:26:11;;;;;;;24.35;11.40;;;-4.60;99.90;;;;;;4988753;28;20104;-82
2022/03/07 06:28:36;;;;;;;21.45;10.40;;;-4.60;99.90;;;;;;4981024;28;20456;-83
2022/03/07 06:31:02;;;;;;;22.02;10.15;;;-4.50;99.90;;;;;;4989635;28;20436;-80
2022/03/07 06:33:28;;;;;;;20.85;8.70;;;-4.50;99.90;;;;;;4986918;28;20069;-83
2022/03/07 06:35:54;;;;;;;22.75;11.60;;;-4.40;99.90;;;;;;4989313;28;20818;-79
2022/03/07 06:38:21;;;;;;;27.75;9.73;;;-4.40;99.90;;;;;;4989725;28;20512;-85
2022/03/07 06:40:47;;;;;;;26.92;10.55;;;-4.40;99.90;;;;;;4997026;28;20029;-84
2022/03/07 06:43:13;;;;;;;20.88;9.80;;;-4.30;99.90;;;;;;4990984;28;20041;-81
2022/03/07 06:45:38;;;;;;;19.80;7.72;;;-4.30;99.90;;;;;;4994866;28;20068;-81
2022/03/07 06:48:05;;;;;;;20.02;9.57;;;-4.20;99.90;;;;;;4999279;28;20041;-81
2022/03/07 06:50:31;;;;;;;25.15;12.25;;;-4.20;99.90;;;;;;5006668;28;20027;-79
2022/03/07 06:52:57;;;;;;;24.02;9.98;;;-4.10;99.90;;;;;;5008017;28;20195;-81
2022/03/07 06:55:23;;;;;;;20.83;9.30;;;-4.10;99.90;;;;;;4994045;28;20561;-80
2022/03/07 06:57:49;;;;;;;21.15;9.77;;;-4.10;99.90;;;;;;4997087;28;20036;-79
2022/03/07 07:00:16;;;;;;;22.83;10.43;;;-3.90;99.90;;;;;;4991654;28;20038;-82
2022/03/07 07:02:42;;;;;;;21.73;9.23;;;-3.70;99.90;;;;;;4996307;28;20081;-83
2022/03/07 07:05:09;;;;;;;23.30;10.27;;;-3.70;99.90;;;;;;4987510;28;20389;-82
2022/03/07 07:07:35;;;;;;;25.23;9.77;;;-3.70;99.90;;;;;;4998227;28;20114;-75
2022/03/07 07:10:02;;;;;;;11.48;5.90;;;-3.70;99.90;;;;;;5003952;28;20462;-85
2022/03/07 07:12:28;;;;;;;18.65;9.40;;;-3.60;99.90;;;;;;4998218;28;20080;-83
2022/03/07 07:14:54;;;;;;;20.98;9.88;;;-3.60;99.90;;;;;;4991664;28;20563;-82
2022/03/07 07:17:20;;;;;;;24.20;11.13;;;-3.50;99.90;;;;;;4995818;28;20044;-85
2022/03/07 07:19:46;;;;;;;24.77;9.70;;;-3.50;99.90;;;;;;4997142;28;20042;-84
2022/03/07 07:22:12;;;;;;;15.27;7.43;;;-3.40;99.90;;;;;;4997467;28;20034;-84
2022/03/07 07:24:38;;;;;;;20.92;9.63;;;-3.30;99.40;;;;;;4998359;28;20038;-85
2022/03/07 07:27:04;;;;;;;20.08;8.57;;;-3.20;98.80;;;;;;4998607;28;20550;-85
2022/03/07 07:29:30;;;;;;;21.63;9.80;;;-3.10;97.90;;;;;;4994380;28;20049;-85
2022/03/07 07:31:55;;;;;;;20.52;10.13;;;-3.10;98.20;;;;;;5000162;28;20496;-85
2022/03/07 07:34:21;;;;;;;21.45;9.50;;;-3.00;97.90;;;;;;5002527;28;20042;-87
2022/03/07 07:36:48;;;;;;;17.52;9.30;;;-2.80;97.60;;;;;;4988821;28;20045;-85
2022/03/07 07:39:15;;;;;;;18.50;8.93;;;-2.60;96.50;;;;;;4996034;28;20049;-87
2022/03/07 07:41:40;;;;;;;19.02;8.10;;;-2.50;96.10;;;;;;4994008;28;20034;-87
2022/03/07 07:44:06;;;;;;;17.60;8.82;;;-2.50;97.30;;;;;;4995161;28;20044;-86
2022/03/07 07:46:32;;;;;;;22.98;8.60;;;-2.50;94.20;;;;;;4994831;28;20026;-83
2022/03/07 07:48:57;;;;;;;16.98;8.27;;;-2.50;94.60;;;;;;4992941;28;20038;-85
2022/03/07 07:51:23;;;;;;;16.75;7.90;;;-2.40;94.50;;;;;;4994238;28;20088;-86
2022/03/07 07:53:49;;;;;;;17.05;7.90;;;-2.30;94.00;;;;;;4993285;28;20085;-83
2022/03/07 07:56:15;;;;;;;14.20;7.47;;;-2.20;94.00;;;;;;4988930;28;20056;-88
2022/03/07 07:58:41;;;;;;;19.48;8.23;;;-2.10;93.90;;;;;;4991979;28;20528;-83
2022/03/07 08:01:06;;;;;;;19.00;8.07;;;-2.00;93.00;;;;;;4994078;28;20065;-84
2022/03/07 08:03:33;;;;;;;16.42;8.60;;;-2.00;92.80;;;;;;4997783;28;20050;-82
2022/03/07 08:05:59;;;;;;;17.05;7.18;;;-1.90;92.30;;;;;;4992949;28;20118;-84
2022/03/07 08:08:24;;;;;;;17.08;7.55;;;-1.90;91.90;;;;;;4997839;28;20062;-84
2022/03/07 08:10:50;;;;;;;15.13;7.57;;;-2.00;91.50;;;;;;4994421;28;20457;-85
2022/03/07 08:13:16;;;;;;;21.63;9.77;;;-1.90;91.40;;;;;;4998128;28;20444;-82
2022/03/07 08:15:42;;;;;;;21.92;10.13;;;-1.90;91.10;;;;;;4993918;28;20033;-83
2022/03/07 08:18:07;;;;;;;20.70;7.65;;;-1.90;91.40;;;;;;4995883;28;20054;-87
2022/03/07 08:20:34;;;;;;;14.20;6.93;;;-1.70;90.40;;;;;;4993099;28;20041;-86
2022/03/07 08:23:00;;;;;;;20.70;8.50;;;-1.50;90.00;;;;;;5000933;28;20026;-88
2022/03/07 08:25:26;;;;;;;24.35;10.30;;;-1.30;89.40;;;;;;4991246;28;20027;-86
2022/03/07 08:27:53;;;;;;;22.05;8.27;;;-1.20;90.20;;;;;;5000185;28;20294;-85
2022/03/07 08:30:21;;;;;;;18.60;8.02;;;-1.30;86.90;;;;;;4989556;28;20064;-85
2022/03/07 08:32:47;;;;;;;16.92;7.60;;;-1.40;87.20;;;;;;4996842;28;20034;-85
2022/03/07 08:35:13;;;;;;;18.10;8.65;;;-1.30;87.20;;;;;;4992203;28;20031;-84
2022/03/07 08:37:45;;;;;;;17.63;9.23;;;-1.10;87.70;;;;;;5001369;28;20030;-86
2022/03/07 08:40:12;;;;;;;16.15;7.38;;;-0.90;86.60;;;;;;4985802;28;20494;-84
2022/03/07 08:42:39;;;;;;;20.23;9.52;;;-0.90;83.70;;;;;;4997127;28;20018;-85
2022/03/07 08:45:06;;;;;;;16.67;8.07;;;-0.90;84.20;;;;;;4987371;28;20393;-82
2022/03/07 08:47:32;;;;;;;16.50;8.50;;;-0.70;83.20;;;;;;4996340;28;20022;-85
2022/03/07 08:49:58;;;;;;;20.75;9.20;;;-0.70;82.20;;;;;;4994953;28;20761;-86
2022/03/07 08:52:23;;;;;;;15.75;10.07;;;-0.80;82.20;;;;;;4997372;28;20052;-85
2022/03/07 08:54:49;;;;;;;10.30;5.90;;;-0.70;81.40;;;;;;4994136;28;20034;-80
2022/03/07 08:57:15;;;;;;;18.60;9.65;;;-0.60;81.20;;;;;;4997259;28;20034;-82
2022/03/07 08:59:41;;;;;;;19.50;9.35;;;-0.50;81.10;;;;;;4989817;28;20561;-83
2022/03/07 09:02:09;;;;;;;19.40;9.10;;;-0.30;81.40;;;;;;4997067;28;20420;-85
2022/03/07 09:04:35;;;;;;;16.15;8.32;;;-0.10;79.70;;;;;;4989382;28;20064;-84
2022/03/07 09:07:01;;;;;;;21.42;9.88;;;0.10;78.00;;;;;;4998187;28;20117;-85
2022/03/07 09:09:28;;;;;;;22.15;9.43;;;0.10;78.90;;;;;;4992086;28;20031;-81
2022/03/07 09:11:54;;;;;;;23.17;10.82;;;0.00;77.30;;;;;;4988882;28;20022;-86
2022/03/07 09:14:20;;;;;;;22.35;10.25;;;0.10;77.00;;;;;;4995293;28;20038;-83
2022/03/07 09:16:45;;;;;;;17.90;10.10;;;0.00;77.00;;;;;;4994906;28;20552;-86
2022/03/07 09:19:11;;;;;;;25.10;9.30;;;0.10;77.20;;;;;;4999018;28;20035;-86
2022/03/07 09:21:37;;;;;;;21.58;11.93;;;0.20;76.20;;;;;;4991833;28;20036;-83
2022/03/07 09:24:03;;;;;;;19.27;9.90;;;0.40;75.80;;;;;;4993154;28;20045;-86
2022/03/07 09:26:29;;;;;;;22.50;11.38;;;0.50;73.80;;;;;;4994755;28;20516;-82
2022/03/07 09:28:55;;;;;;;20.52;9.60;;;0.70;73.90;;;;;;4996949;28;20042;-85
2022/03/07 09:31:20;;;;;;;17.88;9.50;;;0.90;72.60;;;;;;4987479;28;20027;-84
2022/03/07 09:33:46;;;;;;;18.02;9.50;;;0.70;72.90;;;;;;4983238;28;20118;-84
2022/03/07 09:36:13;;;;;;;20.48;10.60;;;0.80;71.80;;;;;;4982864;28;20065;-83
2022/03/07 09:38:38;;;;;;;18.75;10.00;;;1.00;70.60;;;;;;4986563;28;20041;-86
2022/03/07 09:41:05;;;;;;;9.63;6.05;;;1.30;70.40;;;;;;4989079;28;20042;-84
2022/03/07 09:43:31;;;;;;;19.52;10.32;;;1.20;66.80;;;;;;4990796;28;20397;-87
2022/03/07 09:45:57;;;;;;;20.67;9.20;;;1.30;67.70;;;;;;4986731;28;20122;-83
2022/03/07 09:48:25;;;;;;;18.10;8.55;;;1.30;66.10;;;;;;4987840;28;20496;-84
2022/03/07 09:50:52;;;;;;;20.25;10.10;;;1.20;66.30;;;;;;4990830;28;20042;-84
2022/03/07 09:53:18;;;;;;;22.88;10.77;;;1.00;66.60;;;;;;4990471;28;20026;-80
2022/03/07 09:55:46;;;;;;;19.77;10.68;;;1.00;68.20;;;;;;4989122;28;20687;-83
2022/03/07 09:58:13;;;;;;;18.17;10.02;;;1.20;66.70;;;;;;4986231;28;20034;-83
2022/03/07 10:00:41;;;;;;;22.77;10.68;;;1.30;65.80;;;;;;4988534;28;20038;-83
2022/03/07 10:03:09;;;;;;;21.55;12.60;;;1.50;64.80;;;;;;5001533;28;20046;-84
2022/03/07 10:05:41;;;;;;;23.30;10.93;;;1.50;65.10;;;;;;4988343;28;20041;-86
2022/03/07 10:08:08;;;;;;;18.77;10.63;;;1.80;64.30;;;;;;5015690;28;20033;-85
2022/03/07 10:10:43;;;;;;;21.02;10.25;;;1.30;64.60;;;;;;4991685;28;20058;-84
2022/03/07 10:13:13;;;;;;;20.27;9.75;;;1.40;64.00;;;;;;5007633;28;20040;-86
2022/03/07 10:15:41;;;;;;;21.38;10.45;;;1.70;63.80;;;;;;4993927;28;20030;-83
2022/03/07 10:18:19;;;;;;;19.90;9.88;;;1.50;64.90;;;;;;4998162;28;20049;-84
2022/03/07 10:20:53;;;;;;;17.20;8.90;;;1.50;63.60;;;;;;4997358;28;20042;-86
2022/03/07 10:23:20;;;;;;;19.30;9.98;;;1.60;62.10;;;;;;5003908;28;20553;-86
2022/03/07 10:25:46;;;;;;;20.30;9.13;;;1.70;62.20;;;;;;4990711;28;20031;-84
2022/03/07 10:28:12;;;;;;;20.15;10.55;;;2.10;62.00;;;;;;4997766;28;20129;-84
2022/03/07 10:30:39;;;;;;;16.48;8.25;;;2.40;60.10;;;;;;4992563;28;20109;-84
2022/03/07 10:33:09;;;;;;;23.70;10.85;;;2.60;58.20;;;;;;5001906;28;20474;-82
2022/03/07 10:35:43;;;;;;;19.02;10.00;;;2.90;59.00;;;;;;4996304;28;20468;-82
2022/03/07 10:38:12;;;;;;;20.70;10.55;;;3.20;57.10;;;;;;4998092;28;20030;-84
2022/03/07 10:40:41;;;;;;;20.92;10.43;;;3.20;57.00;;;;;;4993721;28;20040;-81
2022/03/07 10:43:07;;;;;;;19.30;10.40;;;2.90;56.00;;;;;;4998224;28;20068;-85
2022/03/07 10:45:51;;;;;;;26.17;11.43;;;2.90;57.10;;;;;;4993560;28;20137;-81
2022/03/07 10:48:18;;;;;;;20.75;11.68;;;2.60;56.50;;;;;;4996977;28;20048;-83
2022/03/07 10:50:53;;;;;;;28.55;11.93;;;2.50;58.10;;;;;;4995182;28;20025;-83
2022/03/07 10:53:19;;;;;;;41.67;16.70;;;2.70;58.40;;;;;;4993572;28;20381;-80
2022/03/07 10:55:59;;;;;;;20.20;11.65;;;3.10;57.80;;;;;;4990267;28;20121;-82
2022/03/07 10:58:26;;;;;;;19.13;10.10;;;2.90;57.00;;;;;;4996238;28;20113;-81
2022/03/07 11:00:53;;;;;;;21.00;11.48;;;3.20;55.40;;;;;;4989692;28;20488;-80
2022/03/07 11:03:23;;;;;;;20.50;10.85;;;3.20;55.30;;;;;;5000106;28;20425;-82
2022/03/07 11:05:50;;;;;;;19.15;12.07;;;2.90;54.50;;;;;;4999164;28;20054;-83
2022/03/07 11:08:17;;;;;;;14.07;7.07;;;2.80;56.00;;;;;;5003471;28;20031;-81
2022/03/07 11:10:49;;;;;;;23.65;11.30;;;2.90;55.00;;;;;;4989437;28;20030;-81
2022/03/07 11:13:17;;;;;;;19.45;10.68;;;3.50;54.30;;;;;;4975110;28;20034;-83
2022/03/07 11:15:45;;;;;;;27.67;10.82;;;3.30;53.60;;;;;;4994686;28;20497;-81
2022/03/07 11:18:12;;;;;;;21.40;11.85;;;3.20;53.70;;;;;;5000881;28;20042;-83
2022/03/07 11:20:41;;;;;;;20.85;11.20;;;3.10;54.70;;;;;;4987382;28;20101;-81
2022/03/07 11:23:09;;;;;;;19.88;9.93;;;3.50;54.20;;;;;;4986905;28;20049;-81
2022/03/07 11:25:36;;;;;;;20.73;10.30;;;3.80;52.20;;;;;;4989268;28;20042;-85
2022/03/07 11:28:02;;;;;;;22.10;12.75;;;3.60;52.00;;;;;;4995711;28;20372;-85
2022/03/07 11:30:34;;;;;;;23.75;11.48;;;3.80;53.10;;;;;;4992511;28;20022;-82
2022/03/07 11:33:12;;;;;;;20.02;10.45;;;4.00;53.30;;;;;;4997180;28;20450;-85
2022/03/07 11:35:45;;;;;;;20.55;12.23;;;4.40;51.50;;;;;;4990434;28;20396;-85
2022/03/07 11:38:14;;;;;;;19.20;11.45;;;4.90;49.80;;;;;;5001156;28;20387;-83
2022/03/07 11:40:59;;;;;;;20.60;11.75;;;5.00;47.70;;;;;;4996432;28;20457;-85
2022/03/07 11:43:26;;;;;;;22.92;11.93;;;4.70;48.90;;;;;;4997324;28;20042;-83
2022/03/07 11:45:54;;;;;;;22.60;12.07;;;4.40;49.40;;;;;;5004303;28;20478;-84
2022/03/07 11:48:21;;;;;;;25.27;11.07;;;4.40;49.90;;;;;;5001657;28;20112;-81
2022/03/07 11:50:47;;;;;;;22.70;12.43;;;4.60;50.90;;;;;;4988477;28;20480;-82
2022/03/07 11:53:16;;;;;;;21.20;11.60;;;4.90;48.90;;;;;;4990312;28;20978;-80
2022/03/07 11:55:51;;;;;;;21.90;12.55;;;4.70;48.50;;;;;;4995199;28;20109;-79
2022/03/07 11:58:35;;;;;;;18.73;10.60;;;4.30;50.70;;;;;;4993686;28;20049;-80
2022/03/07 12:01:10;;;;;;;20.83;12.88;;;4.50;49.10;;;;;;4986866;28;20177;-83
2022/03/07 12:03:36;;;;;;;20.55;12.52;;;4.20;49.40;;;;;;4993452;28;20046;-82
2022/03/07 12:06:11;;;;;;;20.40;12.77;;;4.00;51.40;;;;;;4993384;28;20344;-80
2022/03/07 12:08:52;;;;;;;19.35;11.18;;;4.00;50.40;;;;;;4994108;28;20036;-81
2022/03/07 12:11:33;;;;;;;19.65;12.38;;;4.10;50.00;;;;;;4992899;28;20030;-84
2022/03/07 12:14:02;;;;;;;;;;;4.40;49.30;;;;;;4995193;28;20038;-86
2022/03/07 12:16:41;;;;;;;22.13;12.35;;;4.40;48.70;;;;;;4990097;28;19963;-86
2022/03/07 12:19:10;;;;;;;19.45;11.45;;;4.40;48.50;;;;;;4975288;28;20034;-88
2022/03/07 12:21:37;;;;;;;17.70;10.25;;;4.50;48.90;;;;;;4999528;28;20088;-87
2022/03/07 12:24:06;;;;;;;20.55;11.23;;;4.40;48.20;;;;;;4998646;28;20121;-87
2022/03/07 12:26:32;;;;;;;22.42;12.23;;;4.40;48.90;;;;;;4991332;28;20026;-87
2022/03/07 12:28:57;;;;;;;24.92;12.95;;;4.00;49.80;;;;;;4997557;28;20041;-87
2022/03/07 12:31:23;;;;;;;22.30;11.13;;;4.10;49.30;;;;;;4999405;28;20816;-83
2022/03/07 12:33:50;;;;;;;23.27;12.98;;;4.00;49.90;;;;;;4993458;28;20442;-87